sensor_id;sensor_type;location;lat;lon;timestamp;pressure;altitude;pressure_sealevel;temperature;humidity
54900;BME280;40801;41.924;25.562;2023-02-21T00:01:26;99878.69;;;6.83;47.66
54900;BME280;40801;41.924;25.562;2023-02-21T00:04:11;99872.25;;;6.79;47.93
54900;BME280;40801;41.924;25.562;2023-02-21T00:06:55;99881.63;;;6.72;48.60
54900;BME280;40801;41.924;25.562;2023-02-21T00:09:39;99869.03;;;6.67;48.66
54900;BME280;40801;41.924;25.562;2023-02-21T00:12:23;99884.53;;;6.55;48.92
54900;BME280;40801;41.924;25.562;2023-02-21T00:15:07;99870.34;;;6.60;48.26
54900;BME280;40801;41.924;25.562;2023-02-21T00:17:52;99863.63;;;6.57;48.09
54900;BME280;40801;41.924;25.562;2023-02-21T00:20:36;99870.59;;;6.63;48.26
54900;BME280;40801;41.924;25.562;2023-02-21T00:23:20;99860.16;;;6.62;47.78
54900;BME280;40801;41.924;25.562;2023-02-21T00:26:04;99863.66;;;6.67;47.95
54900;BME280;40801;41.924;25.562;2023-02-21T00:28:48;99856.41;;;6.52;48.19
54900;BME280;40801;41.924;25.562;2023-02-21T00:31:32;99860.69;;;6.38;48.68
54900;BME280;40801;41.924;25.562;2023-02-21T00:34:16;99856.94;;;6.49;47.88
54900;BME280;40801;41.924;25.562;2023-02-21T00:37:00;99846.22;;;6.39;48.60
54900;BME280;40801;41.924;25.562;2023-02-21T00:39:44;99841.13;;;6.38;48.52
54900;BME280;40801;41.924;25.562;2023-02-21T00:42:28;99844.88;;;6.37;48.50
54900;BME280;40801;41.924;25.562;2023-02-21T00:45:12;99846.19;;;6.34;48.54
54900;BME280;40801;41.924;25.562;2023-02-21T00:47:56;99847.00;;;6.35;48.81
54900;BME280;40801;41.924;25.562;2023-02-21T00:50:40;99849.16;;;6.43;48.99
54900;BME280;40801;41.924;25.562;2023-02-21T00:53:24;99837.06;;;6.30;48.54
54900;BME280;40801;41.924;25.562;2023-02-21T00:56:08;99838.94;;;6.35;49.10
54900;BME280;40801;41.924;25.562;2023-02-21T00:58:52;99829.63;;;6.42;49.13
54900;BME280;40801;41.924;25.562;2023-02-21T01:01:36;99811.94;;;6.41;49.13
54900;BME280;40801;41.924;25.562;2023-02-21T01:04:20;99817.28;;;6.36;49.20
54900;BME280;40801;41.924;25.562;2023-02-21T01:07:04;99803.88;;;6.31;49.48
54900;BME280;40801;41.924;25.562;2023-02-21T01:09:48;99803.59;;;6.28;49.36
54900;BME280;40801;41.924;25.562;2023-02-21T01:12:32;99800.38;;;6.31;48.93
54900;BME280;40801;41.924;25.562;2023-02-21T01:15:16;99798.50;;;6.16;49.88
54900;BME280;40801;41.924;25.562;2023-02-21T01:18:00;99790.75;;;6.14;49.73
54900;BME280;40801;41.924;25.562;2023-02-21T01:20:44;99789.34;;;6.07;50.01
54900;BME280;40801;41.924;25.562;2023-02-21T01:23:28;99793.16;;;6.11;49.49
54900;BME280;40801;41.924;25.562;2023-02-21T01:26:12;99789.66;;;6.10;49.83
54900;BME280;40801;41.924;25.562;2023-02-21T01:28:56;99779.50;;;6.12;49.70
54900;BME280;40801;41.924;25.562;2023-02-21T01:31:40;99774.13;;;6.07;49.75
54900;BME280;40801;41.924;25.562;2023-02-21T01:34:24;99774.13;;;6.12;49.67
54900;BME280;40801;41.924;25.562;2023-02-21T01:37:08;99772.53;;;6.11;49.63
54900;BME280;40801;41.924;25.562;2023-02-21T01:39:52;99774.09;;;6.02;49.82
54900;BME280;40801;41.924;25.562;2023-02-21T01:42:36;99755.09;;;6.04;50.00
54900;BME280;40801;41.924;25.562;2023-02-21T01:48:10;99754.59;;;6.17;49.89
54900;BME280;40801;41.924;25.562;2023-02-21T01:50:56;99746.81;;;6.20;49.19
54900;BME280;40801;41.924;25.562;2023-02-21T01:53:41;99742.81;;;6.18;49.56
54900;BME280;40801;41.924;25.562;2023-02-21T01:56:26;99761.28;;;6.09;49.55
54900;BME280;40801;41.924;25.562;2023-02-21T01:59:11;99751.91;;;6.17;49.26
54900;BME280;40801;41.924;25.562;2023-02-21T02:02:07;99750.84;;;6.23;50.71
54900;BME280;40801;41.924;25.562;2023-02-21T02:04:53;99750.84;;;6.18;49.66
54900;BME280;40801;41.924;25.562;2023-02-21T02:07:38;99747.91;;;6.25;49.56
54900;BME280;40801;41.924;25.562;2023-02-21T02:10:23;99747.88;;;6.30;49.33
54900;BME280;40801;41.924;25.562;2023-02-21T02:35:38;99729.13;;;5.94;51.46
54900;BME280;40801;41.924;25.562;2023-02-21T02:38:26;99720.81;;;5.96;51.77
54900;BME280;40801;41.924;25.562;2023-02-21T02:40:59;99714.41;;;5.97;50.80
54900;BME280;40801;41.924;25.562;2023-02-21T02:43:39;99712.78;;;6.01;51.58
54900;BME280;40801;41.924;25.562;2023-02-21T02:46:28;99704.22;;;5.99;51.31
54900;BME280;40801;41.924;25.562;2023-02-21T02:49:21;99701.00;;;5.92;52.36
54900;BME280;40801;41.924;25.562;2023-02-21T02:51:50;99699.13;;;5.92;51.39
54900;BME280;40801;41.924;25.562;2023-02-21T02:54:16;99700.75;;;5.93;51.00
54900;BME280;40801;41.924;25.562;2023-02-21T02:56:42;99693.75;;;5.87;51.15
54900;BME280;40801;41.924;25.562;2023-02-21T02:59:11;99705.22;;;5.77;51.39
54900;BME280;40801;41.924;25.562;2023-02-21T03:04:35;99695.84;;;5.75;52.46
54900;BME280;40801;41.924;25.562;2023-02-21T03:15:55;99694.16;;;5.38;52.35
54900;BME280;40801;41.924;25.562;2023-02-21T03:21:04;99689.09;;;5.37;51.62
54900;BME280;40801;41.924;25.562;2023-02-21T03:23:33;99681.59;;;5.39;51.85
54900;BME280;40801;41.924;25.562;2023-02-21T03:26:03;99683.72;;;5.32;52.02
54900;BME280;40801;41.924;25.562;2023-02-21T03:28:31;99682.91;;;5.21;52.06
54900;BME280;40801;41.924;25.562;2023-02-21T03:30:58;99679.16;;;5.27;51.91
54900;BME280;40801;41.924;25.562;2023-02-21T03:33:24;99687.19;;;5.32;52.04
54900;BME280;40801;41.924;25.562;2023-02-21T03:35:51;99688.00;;;5.33;51.88
54900;BME280;40801;41.924;25.562;2023-02-21T03:38:17;99697.09;;;5.32;52.22
54900;BME280;40801;41.924;25.562;2023-02-21T03:40:42;99690.94;;;5.31;52.13
54900;BME280;40801;41.924;25.562;2023-02-21T03:43:08;99689.59;;;5.28;52.25
54900;BME280;40801;41.924;25.562;2023-02-21T03:45:35;99692.81;;;5.25;52.35
54900;BME280;40801;41.924;25.562;2023-02-21T03:48:01;99694.13;;;5.23;52.81
54900;BME280;40801;41.924;25.562;2023-02-21T03:50:27;99698.44;;;5.29;52.46
54900;BME280;40801;41.924;25.562;2023-02-21T03:52:53;99686.66;;;5.25;52.15
54900;BME280;40801;41.924;25.562;2023-02-21T03:55:19;99699.78;;;5.32;52.33
54900;BME280;40801;41.924;25.562;2023-02-21T03:57:45;99692.56;;;5.32;52.80
54900;BME280;40801;41.924;25.562;2023-02-21T04:00:12;99692.28;;;5.28;53.00
54900;BME280;40801;41.924;25.562;2023-02-21T04:02:38;99705.66;;;5.28;52.94
54900;BME280;40801;41.924;25.562;2023-02-21T04:05:04;99702.44;;;5.32;52.94
54900;BME280;40801;41.924;25.562;2023-02-21T04:07:29;99695.75;;;5.34;52.83
54900;BME280;40801;41.924;25.562;2023-02-21T04:09:55;99701.91;;;5.35;52.61
54900;BME280;40801;41.924;25.562;2023-02-21T04:12:20;99699.25;;;5.35;52.22
54900;BME280;40801;41.924;25.562;2023-02-21T04:14:46;99690.94;;;5.31;52.46
54900;BME280;40801;41.924;25.562;2023-02-21T04:17:11;99693.88;;;5.24;52.23
54900;BME280;40801;41.924;25.562;2023-02-21T04:19:37;99695.47;;;5.25;52.61
54900;BME280;40801;41.924;25.562;2023-02-21T04:22:02;99696.56;;;5.29;52.19
54900;BME280;40801;41.924;25.562;2023-02-21T04:24:27;99698.69;;;5.33;51.75
54900;BME280;40801;41.924;25.562;2023-02-21T04:26:53;99686.94;;;5.34;51.81
54900;BME280;40801;41.924;25.562;2023-02-21T04:29:18;99708.34;;;5.39;51.66
54900;BME280;40801;41.924;25.562;2023-02-21T04:31:44;99703.78;;;5.29;52.20
54900;BME280;40801;41.924;25.562;2023-02-21T04:34:09;99702.97;;;5.34;52.36
54900;BME280;40801;41.924;25.562;2023-02-21T04:36:35;99699.50;;;5.28;52.88
54900;BME280;40801;41.924;25.562;2023-02-21T04:39:02;99700.28;;;5.28;52.78
54900;BME280;40801;41.924;25.562;2023-02-21T04:41:28;99710.72;;;5.30;53.18
54900;BME280;40801;41.924;25.562;2023-02-21T04:43:53;99713.13;;;5.32;52.98
54900;BME280;40801;41.924;25.562;2023-02-21T04:46:18;99705.13;;;5.37;53.19
54900;BME280;40801;41.924;25.562;2023-02-21T04:48:49;99708.56;;;5.22;54.11
54900;BME280;40801;41.924;25.562;2023-02-21T04:51:17;99709.94;;;5.35;52.51
54900;BME280;40801;41.924;25.562;2023-02-21T04:53:45;99703.78;;;5.34;52.58
54900;BME280;40801;41.924;25.562;2023-02-21T04:56:11;99706.44;;;5.29;52.78
54900;BME280;40801;41.924;25.562;2023-02-21T04:58:37;99707.81;;;5.37;52.98
54900;BME280;40801;41.924;25.562;2023-02-21T05:01:02;99701.09;;;5.24;53.25
54900;BME280;40801;41.924;25.562;2023-02-21T05:03:28;99698.94;;;5.21;53.26
54900;BME280;40801;41.924;25.562;2023-02-21T05:05:53;99699.16;;;5.14;53.60
54900;BME280;40801;41.924;25.562;2023-02-21T05:08:18;99704.50;;;5.19;53.45
54900;BME280;40801;41.924;25.562;2023-02-21T05:10:44;99705.91;;;5.27;53.42
54900;BME280;40801;41.924;25.562;2023-02-21T05:13:10;99707.19;;;5.19;54.08
54900;BME280;40801;41.924;25.562;2023-02-21T05:15:36;99717.66;;;5.26;53.43
54900;BME280;40801;41.924;25.562;2023-02-21T05:18:01;99702.41;;;5.21;53.80
54900;BME280;40801;41.924;25.562;2023-02-21T05:20:27;99705.09;;;5.21;53.72
54900;BME280;40801;41.924;25.562;2023-02-21T05:22:53;99707.97;;;5.15;54.04
54900;BME280;40801;41.924;25.562;2023-02-21T05:25:20;99714.94;;;5.16;53.93
54900;BME280;40801;41.924;25.562;2023-02-21T05:27:47;99717.88;;;5.14;54.29
54900;BME280;40801;41.924;25.562;2023-02-21T05:30:15;99716.84;;;5.20;54.16
54900;BME280;40801;41.924;25.562;2023-02-21T05:32:41;99720.09;;;5.27;54.09
54900;BME280;40801;41.924;25.562;2023-02-21T05:35:07;99721.41;;;5.25;54.35
54900;BME280;40801;41.924;25.562;2023-02-21T05:37:33;99721.16;;;5.32;53.67
54900;BME280;40801;41.924;25.562;2023-02-21T05:39:58;99724.91;;;5.31;54.09
54900;BME280;40801;41.924;25.562;2023-02-21T05:42:24;99727.06;;;5.34;53.98
54900;BME280;40801;41.924;25.562;2023-02-21T05:44:49;99725.19;;;5.44;53.69
54900;BME280;40801;41.924;25.562;2023-02-21T05:47:15;99720.94;;;5.48;53.62
54900;BME280;40801;41.924;25.562;2023-02-21T05:49:41;99720.66;;;5.40;53.74
54900;BME280;40801;41.924;25.562;2023-02-21T05:52:10;99719.59;;;5.41;54.12
54900;BME280;40801;41.924;25.562;2023-02-21T05:54:35;99729.75;;;5.39;53.45
54900;BME280;40801;41.924;25.562;2023-02-21T05:57:01;99726.81;;;5.40;53.61
54900;BME280;40801;41.924;25.562;2023-02-21T05:59:26;99719.84;;;5.44;53.33
54900;BME280;40801;41.924;25.562;2023-02-21T06:01:52;99728.75;;;5.55;53.18
54900;BME280;40801;41.924;25.562;2023-02-21T06:04:17;99725.28;;;5.59;53.37
54900;BME280;40801;41.924;25.562;2023-02-21T06:06:43;99715.38;;;5.65;53.09
54900;BME280;40801;41.924;25.562;2023-02-21T06:09:09;99713.00;;;5.79;53.07
54900;BME280;40801;41.924;25.562;2023-02-21T06:11:36;99721.63;;;5.91;52.90
54900;BME280;40801;41.924;25.562;2023-02-21T06:14:04;99715.19;;;6.02;52.50
54900;BME280;40801;41.924;25.562;2023-02-21T06:16:34;99716.56;;;6.15;52.69
54900;BME280;40801;41.924;25.562;2023-02-21T06:19:01;99717.63;;;6.34;51.56
54900;BME280;40801;41.924;25.562;2023-02-21T06:21:26;99722.97;;;6.49;51.30
54900;BME280;40801;41.924;25.562;2023-02-21T06:23:52;99726.72;;;6.64;51.44
54900;BME280;40801;41.924;25.562;2023-02-21T06:26:18;99722.69;;;6.76;51.44
54900;BME280;40801;41.924;25.562;2023-02-21T06:28:45;99715.66;;;7.01;50.70
54900;BME280;40801;41.924;25.562;2023-02-21T06:31:11;99720.97;;;7.11;51.17
54900;BME280;40801;41.924;25.562;2023-02-21T06:33:36;99720.13;;;7.21;50.77
54900;BME280;40801;41.924;25.562;2023-02-21T06:36:03;99714.75;;;7.31;50.92
54900;BME280;40801;41.924;25.562;2023-02-21T06:38:29;99712.50;;;7.53;50.12
54900;BME280;40801;41.924;25.562;2023-02-21T06:40:54;99714.25;;;7.73;50.03
54900;BME280;40801;41.924;25.562;2023-02-21T06:43:20;99716.09;;;7.83;50.21
54900;BME280;40801;41.924;25.562;2023-02-21T06:45:45;99715.97;;;7.98;50.13
54900;BME280;40801;41.924;25.562;2023-02-21T06:48:16;99712.59;;;8.21;49.57
54900;BME280;40801;41.924;25.562;2023-02-21T06:50:42;99703.38;;;8.32;48.81
54900;BME280;40801;41.924;25.562;2023-02-21T06:53:07;99709.88;;;8.60;49.05
54900;BME280;40801;41.924;25.562;2023-02-21T06:55:33;99695.88;;;9.11;48.96
54900;BME280;40801;41.924;25.562;2023-02-21T06:57:58;99699.47;;;9.68;47.34
54900;BME280;40801;41.924;25.562;2023-02-21T07:00:24;99704.69;;;9.97;46.58
54900;BME280;40801;41.924;25.562;2023-02-21T07:02:51;99700.16;;;10.11;46.03
54900;BME280;40801;41.924;25.562;2023-02-21T07:05:17;99704.47;;;10.12;45.64
54900;BME280;40801;41.924;25.562;2023-02-21T07:07:43;99700.59;;;10.18;45.58
54900;BME280;40801;41.924;25.562;2023-02-21T07:10:08;99692.53;;;10.18;45.09
54900;BME280;40801;41.924;25.562;2023-02-21T07:12:34;99697.25;;;10.27;45.11
54900;BME280;40801;41.924;25.562;2023-02-21T07:14:59;99696.38;;;10.31;45.28
54900;BME280;40801;41.924;25.562;2023-02-21T07:17:25;99692.69;;;10.27;45.62
54900;BME280;40801;41.924;25.562;2023-02-21T07:19:50;99703.16;;;10.29;44.80
54900;BME280;40801;41.924;25.562;2023-02-21T07:22:15;99688.41;;;10.40;45.16
54900;BME280;40801;41.924;25.562;2023-02-21T07:24:43;99695.94;;;10.57;44.73
54900;BME280;40801;41.924;25.562;2023-02-21T07:27:08;99692.34;;;10.61;44.10
54900;BME280;40801;41.924;25.562;2023-02-21T07:29:34;99693.50;;;10.88;44.17
54900;BME280;40801;41.924;25.562;2023-02-21T07:31:59;99693.88;;;11.49;43.98
54900;BME280;40801;41.924;25.562;2023-02-21T07:34:25;99692.31;;;12.07;43.44
54900;BME280;40801;41.924;25.562;2023-02-21T07:36:50;99692.63;;;12.50;42.61
54900;BME280;40801;41.924;25.562;2023-02-21T07:39:16;99688.88;;;13.48;40.80
54900;BME280;40801;41.924;25.562;2023-02-21T07:41:41;99692.59;;;14.94;39.69
54900;BME280;40801;41.924;25.562;2023-02-21T07:44:07;99676.19;;;15.70;37.87
54900;BME280;40801;41.924;25.562;2023-02-21T07:46:32;99683.97;;;15.80;36.07
54900;BME280;40801;41.924;25.562;2023-02-21T07:48:59;99673.53;;;15.82;35.82
54900;BME280;40801;41.924;25.562;2023-02-21T07:51:27;99680.63;;;16.61;35.19
54900;BME280;40801;41.924;25.562;2023-02-21T07:53:53;99662.16;;;17.52;34.78
54900;BME280;40801;41.924;25.562;2023-02-21T07:56:18;99654.88;;;18.52;33.51
54900;BME280;40801;41.924;25.562;2023-02-21T07:58:44;99655.44;;;18.74;32.20
54900;BME280;40801;41.924;25.562;2023-02-21T08:01:09;99643.38;;;18.31;32.26
54900;BME280;40801;41.924;25.562;2023-02-21T08:03:34;99639.94;;;18.62;32.10
54900;BME280;40801;41.924;25.562;2023-02-21T08:06:02;99636.13;;;19.33;31.27
54900;BME280;40801;41.924;25.562;2023-02-21T08:08:27;99641.56;;;19.14;30.91
54900;BME280;40801;41.924;25.562;2023-02-21T08:10:53;99638.78;;;19.10;31.17
54900;BME280;40801;41.924;25.562;2023-02-21T08:13:18;99626.81;;;18.83;30.71
54900;BME280;40801;41.924;25.562;2023-02-21T08:15:44;99627.47;;;19.12;31.32
54900;BME280;40801;41.924;25.562;2023-02-21T08:18:17;99636.38;;;19.98;29.27
54900;BME280;40801;41.924;25.562;2023-02-21T08:20:45;99629.47;;;20.47;29.47
54900;BME280;40801;41.924;25.562;2023-02-21T08:23:10;99620.41;;;20.65;28.47
54900;BME280;40801;41.924;25.562;2023-02-21T08:25:36;99616.34;;;20.56;28.87
54900;BME280;40801;41.924;25.562;2023-02-21T08:28:01;99603.31;;;20.98;28.57
54900;BME280;40801;41.924;25.562;2023-02-21T08:30:27;99606.16;;;21.32;27.71
54900;BME280;40801;41.924;25.562;2023-02-21T08:32:52;99600.09;;;21.46;27.22
54900;BME280;40801;41.924;25.562;2023-02-21T08:35:18;99604.97;;;21.29;26.37
54900;BME280;40801;41.924;25.562;2023-02-21T08:37:48;99597.88;;;22.25;25.81
54900;BME280;40801;41.924;25.562;2023-02-21T08:40:17;99593.84;;;23.01;25.22
54900;BME280;40801;41.924;25.562;2023-02-21T08:42:42;99593.19;;;22.70;24.12
54900;BME280;40801;41.924;25.562;2023-02-21T08:45:15;99590.75;;;23.09;23.41
54900;BME280;40801;41.924;25.562;2023-02-21T08:47:41;99586.75;;;23.00;22.49
54900;BME280;40801;41.924;25.562;2023-02-21T08:50:07;99589.91;;;22.54;23.16
54900;BME280;40801;41.924;25.562;2023-02-21T08:52:33;99573.16;;;23.25;22.75
54900;BME280;40801;41.924;25.562;2023-02-21T08:54:58;99570.69;;;23.82;22.79
54900;BME280;40801;41.924;25.562;2023-02-21T08:57:23;99562.47;;;24.10;21.86
54900;BME280;40801;41.924;25.562;2023-02-21T08:59:49;99554.66;;;24.40;21.80
54900;BME280;40801;41.924;25.562;2023-02-21T09:02:17;99554.66;;;24.65;20.63
54900;BME280;40801;41.924;25.562;2023-02-21T09:04:43;99540.88;;;24.62;21.01
54900;BME280;40801;41.924;25.562;2023-02-21T09:07:11;99540.09;;;24.65;20.70
54900;BME280;40801;41.924;25.562;2023-02-21T09:09:37;99539.56;;;25.30;20.71
54900;BME280;40801;41.924;25.562;2023-02-21T09:12:02;99545.09;;;25.27;20.57
54900;BME280;40801;41.924;25.562;2023-02-21T09:14:32;99536.94;;;25.89;20.02
54900;BME280;40801;41.924;25.562;2023-02-21T09:16:58;99539.34;;;25.84;20.13
54900;BME280;40801;41.924;25.562;2023-02-21T09:19:23;99533.41;;;25.85;19.17
54900;BME280;40801;41.924;25.562;2023-02-21T09:21:48;99545.06;;;25.38;20.04
54900;BME280;40801;41.924;25.562;2023-02-21T09:24:19;99530.13;;;26.60;19.28
54900;BME280;40801;41.924;25.562;2023-02-21T09:26:53;99538.25;;;25.67;19.53
54900;BME280;40801;41.924;25.562;2023-02-21T09:29:22;99530.75;;;25.60;19.72
54900;BME280;40801;41.924;25.562;2023-02-21T09:31:48;99538.16;;;25.85;19.62
54900;BME280;40801;41.924;25.562;2023-02-21T09:34:14;99535.63;;;26.12;19.27
54900;BME280;40801;41.924;25.562;2023-02-21T09:36:40;99523.22;;;25.79;19.35
54900;BME280;40801;41.924;25.562;2023-02-21T09:39:06;99522.31;;;25.92;19.33
54900;BME280;40801;41.924;25.562;2023-02-21T09:41:33;99516.91;;;26.78;18.63
54900;BME280;40801;41.924;25.562;2023-02-21T09:44:00;99502.38;;;26.71;17.97
54900;BME280;40801;41.924;25.562;2023-02-21T09:46:39;99503.09;;;26.75;17.83
54900;BME280;40801;41.924;25.562;2023-02-21T09:49:50;99499.56;;;26.26;17.99
54900;BME280;40801;41.924;25.562;2023-02-21T09:51:51;99508.56;;;26.82;18.00
54900;BME280;40801;41.924;25.562;2023-02-21T09:54:30;99512.50;;;26.84;17.79
54900;BME280;40801;41.924;25.562;2023-02-21T09:56:59;99496.53;;;27.33;17.58
54900;BME280;40801;41.924;25.562;2023-02-21T09:59:25;99509.38;;;27.51;17.63
54900;BME280;40801;41.924;25.562;2023-02-21T10:07:13;99485.28;;;27.48;16.32
54900;BME280;40801;41.924;25.562;2023-02-21T10:12:14;99490.41;;;28.53;15.60
54900;BME280;40801;41.924;25.562;2023-02-21T10:17:25;99479.19;;;28.14;15.31
54900;BME280;40801;41.924;25.562;2023-02-21T10:19:56;99467.00;;;28.54;15.42
54900;BME280;40801;41.924;25.562;2023-02-21T10:22:27;99465.38;;;29.00;15.85
54900;BME280;40801;41.924;25.562;2023-02-21T10:24:55;99467.84;;;28.75;15.36
54900;BME280;40801;41.924;25.562;2023-02-21T10:27:24;99458.22;;;28.79;15.40
54900;BME280;40801;41.924;25.562;2023-02-21T10:29:59;99448.50;;;28.91;14.53
54900;BME280;40801;41.924;25.562;2023-02-21T10:32:26;99437.59;;;29.20;14.53
54900;BME280;40801;41.924;25.562;2023-02-21T10:34:52;99441.78;;;28.68;14.78
54900;BME280;40801;41.924;25.562;2023-02-21T10:40:00;99429.56;;;29.06;14.81
54900;BME280;40801;41.924;25.562;2023-02-21T10:42:39;99412.38;;;29.83;14.32
54900;BME280;40801;41.924;25.562;2023-02-21T10:45:08;99403.59;;;29.32;14.77
54900;BME280;40801;41.924;25.562;2023-02-21T10:47:55;99403.69;;;29.28;14.54
54900;BME280;40801;41.924;25.562;2023-02-21T10:50:43;99407.44;;;29.38;14.83
54900;BME280;40801;41.924;25.562;2023-02-21T10:53:40;99391.84;;;29.44;14.65
54900;BME280;40801;41.924;25.562;2023-02-21T10:59:03;99396.25;;;28.86;15.19
54900;BME280;40801;41.924;25.562;2023-02-21T11:01:39;99395.44;;;28.46;15.27
54900;BME280;40801;41.924;25.562;2023-02-21T11:06:46;99367.16;;;29.46;14.99
54900;BME280;40801;41.924;25.562;2023-02-21T11:09:41;99374.13;;;29.18;14.61
54900;BME280;40801;41.924;25.562;2023-02-21T11:12:23;99371.97;;;30.11;14.05
54900;BME280;40801;41.924;25.562;2023-02-21T11:17:25;99356.22;;;30.78;13.75
54900;BME280;40801;41.924;25.562;2023-02-21T11:20:18;99353.22;;;30.86;13.52
54900;BME280;40801;41.924;25.562;2023-02-21T11:22:47;99342.78;;;30.61;13.89
54900;BME280;40801;41.924;25.562;2023-02-21T11:25:38;99346.97;;;30.81;13.68
54900;BME280;40801;41.924;25.562;2023-02-21T11:30:49;99338.53;;;30.27;13.82
54900;BME280;40801;41.924;25.562;2023-02-21T11:33:22;99330.63;;;31.09;13.31
54900;BME280;40801;41.924;25.562;2023-02-21T11:35:52;99330.03;;;30.89;14.09
54900;BME280;40801;41.924;25.562;2023-02-21T11:38:38;99321.69;;;31.65;13.10
54900;BME280;40801;41.924;25.562;2023-02-21T11:41:36;99316.78;;;32.03;13.09
54900;BME280;40801;41.924;25.562;2023-02-21T11:44:33;99319.25;;;32.01;12.81
54900;BME280;40801;41.924;25.562;2023-02-21T11:47:25;99305.59;;;32.60;12.38
54900;BME280;40801;41.924;25.562;2023-02-21T11:50:11;99311.56;;;32.93;12.29
54900;BME280;40801;41.924;25.562;2023-02-21T11:52:41;99303.72;;;32.79;12.38
54900;BME280;40801;41.924;25.562;2023-02-21T11:55:21;99298.72;;;33.05;12.00
54900;BME280;40801;41.924;25.562;2023-02-21T11:58:21;99281.16;;;32.42;12.93
54900;BME280;40801;41.924;25.562;2023-02-21T12:04:36;99277.19;;;32.52;12.76
54900;BME280;40801;41.924;25.562;2023-02-21T12:22:35;99255.41;;;33.77;11.78
54900;BME280;40801;41.924;25.562;2023-02-21T12:25:31;99245.66;;;33.91;11.89
54900;BME280;40801;41.924;25.562;2023-02-21T12:33:42;99229.38;;;34.59;11.42
54900;BME280;40801;41.924;25.562;2023-02-21T12:36:21;99228.88;;;34.00;11.28
54900;BME280;40801;41.924;25.562;2023-02-21T12:39:00;99228.56;;;33.89;11.12
54900;BME280;40801;41.924;25.562;2023-02-21T12:41:48;99226.03;;;33.54;11.59
54900;BME280;40801;41.924;25.562;2023-02-21T12:44:21;99218.72;;;32.89;11.77
54900;BME280;40801;41.924;25.562;2023-02-21T12:47:10;99216.59;;;33.88;11.25
54900;BME280;40801;41.924;25.562;2023-02-21T12:49:44;99214.16;;;33.22;11.59
54900;BME280;40801;41.924;25.562;2023-02-21T12:52:35;99213.94;;;33.57;11.58
54900;BME280;40801;41.924;25.562;2023-02-21T13:00:24;99206.72;;;33.29;11.52
54900;BME280;40801;41.924;25.562;2023-02-21T13:08:22;99200.66;;;34.31;11.47
54900;BME280;40801;41.924;25.562;2023-02-21T13:10:57;99191.34;;;34.25;11.18
54900;BME280;40801;41.924;25.562;2023-02-21T13:13:31;99190.91;;;33.80;11.56
54900;BME280;40801;41.924;25.562;2023-02-21T13:15:59;99193.88;;;33.68;11.75
54900;BME280;40801;41.924;25.562;2023-02-21T13:18:51;99194.97;;;33.52;11.39
54900;BME280;40801;41.924;25.562;2023-02-21T13:24:23;99182.13;;;32.96;11.61
54900;BME280;40801;41.924;25.562;2023-02-21T13:26:57;99179.25;;;32.78;11.72
54900;BME280;40801;41.924;25.562;2023-02-21T13:29:31;99184.94;;;32.34;11.84
54900;BME280;40801;41.924;25.562;2023-02-21T13:32:08;99178.56;;;31.81;12.11
54900;BME280;40801;41.924;25.562;2023-02-21T13:34:37;99187.16;;;31.39;12.58
54900;BME280;40801;41.924;25.562;2023-02-21T13:37:06;99176.38;;;32.59;11.89
54900;BME280;40801;41.924;25.562;2023-02-21T13:39:33;99165.69;;;32.67;11.80
54900;BME280;40801;41.924;25.562;2023-02-21T13:42:16;99155.50;;;32.73;11.77
54900;BME280;40801;41.924;25.562;2023-02-21T13:55:37;99155.44;;;31.58;12.25
54900;BME280;40801;41.924;25.562;2023-02-21T14:08:17;99140.91;;;31.63;12.07
54900;BME280;40801;41.924;25.562;2023-02-21T14:10:54;99132.78;;;31.34;12.37
54900;BME280;40801;41.924;25.562;2023-02-21T14:23:52;99120.16;;;29.65;12.96
54900;BME280;40801;41.924;25.562;2023-02-21T14:29:39;99120.88;;;30.23;12.19
54900;BME280;40801;41.924;25.562;2023-02-21T14:39:39;99124.09;;;28.57;13.06
54900;BME280;40801;41.924;25.562;2023-02-21T14:42:31;99124.06;;;27.65;13.72
54900;BME280;40801;41.924;25.562;2023-02-21T14:45:26;99135.25;;;26.41;14.71
54900;BME280;40801;41.924;25.562;2023-02-21T14:56:01;99137.72;;;24.19;16.01
54900;BME280;40801;41.924;25.562;2023-02-21T15:01:54;99130.94;;;23.29;16.94
54900;BME280;40801;41.924;25.562;2023-02-21T15:12:34;99128.19;;;22.65;17.55
54900;BME280;40801;41.924;25.562;2023-02-21T15:15:01;99132.06;;;22.39;17.95
54900;BME280;40801;41.924;25.562;2023-02-21T15:17:27;99134.81;;;22.28;18.10
54900;BME280;40801;41.924;25.562;2023-02-21T15:20:13;99138.63;;;22.02;18.59
54900;BME280;40801;41.924;25.562;2023-02-21T15:22:40;99138.97;;;21.97;18.59
54900;BME280;40801;41.924;25.562;2023-02-21T15:27:50;99141.28;;;21.84;18.49
54900;BME280;40801;41.924;25.562;2023-02-21T15:30:18;99149.53;;;21.91;18.53
54900;BME280;40801;41.924;25.562;2023-02-21T15:35:23;99159.28;;;21.75;18.83
54900;BME280;40801;41.924;25.562;2023-02-21T15:37:51;99161.63;;;21.69;18.88
54900;BME280;40801;41.924;25.562;2023-02-21T15:40:20;99165.50;;;21.68;18.96
54900;BME280;40801;41.924;25.562;2023-02-21T15:42:48;99170.59;;;21.66;18.81
54900;BME280;40801;41.924;25.562;2023-02-21T15:45:22;99182.34;;;21.59;19.06
54900;BME280;40801;41.924;25.562;2023-02-21T15:47:50;99183.84;;;21.50;19.25
54900;BME280;40801;41.924;25.562;2023-02-21T15:53:22;99184.06;;;21.23;19.77
54900;BME280;40801;41.924;25.562;2023-02-21T15:55:49;99181.53;;;21.08;20.52
54900;BME280;40801;41.924;25.562;2023-02-21T15:58:23;99186.13;;;20.93;20.63
54900;BME280;40801;41.924;25.562;2023-02-21T16:01:10;99185.16;;;20.75;20.75
54900;BME280;40801;41.924;25.562;2023-02-21T16:03:37;99192.06;;;20.58;20.89
54900;BME280;40801;41.924;25.562;2023-02-21T16:08:35;99190.19;;;20.32;21.04
54900;BME280;40801;41.924;25.562;2023-02-21T16:11:03;99187.38;;;20.25;21.55
54900;BME280;40801;41.924;25.562;2023-02-21T16:13:38;99191.50;;;20.11;22.20
54900;BME280;40801;41.924;25.562;2023-02-21T16:16:06;99207.81;;;20.01;22.54